createdAt,value
2023-02-27T00:01:28.899Z,96840.84
2023-02-27T00:03:57.870Z,96839.81
2023-02-27T00:06:24.493Z,96828.63
2023-02-27T00:08:53.387Z,96837.28
2023-02-27T00:11:20.356Z,96843.41
2023-02-27T00:13:51.215Z,96848.63
2023-02-27T00:16:18.027Z,96845.94
2023-02-27T00:18:44.695Z,96846.78
2023-02-27T00:21:11.437Z,96843.25
2023-02-27T00:23:38.357Z,96844.03
2023-02-27T00:26:05.422Z,96850.03
2023-02-27T00:28:35.170Z,96846.66
2023-02-27T00:31:01.965Z,96841.50
2023-02-27T00:33:30.457Z,96835.25
2023-02-27T00:35:59.374Z,96845.66
2023-02-27T00:38:26.465Z,96845.59
2023-02-27T00:40:57.615Z,96834.44
2023-02-27T00:43:24.480Z,96836.34
2023-02-27T00:45:51.028Z,96842.41
2023-02-27T00:48:20.817Z,96843.19
2023-02-27T00:50:47.622Z,96837.19
2023-02-27T00:53:14.273Z,96838.97
2023-02-27T00:55:40.907Z,96853.59
2023-02-27T00:58:07.633Z,96843.81
2023-02-27T01:00:34.341Z,96842.06
2023-02-27T01:03:03.954Z,96842.09
2023-02-27T01:05:31.065Z,96837.06
2023-02-27T01:08:00.042Z,96837.91
2023-02-27T01:10:29.164Z,96830.09
2023-02-27T01:12:55.819Z,96832.63
2023-02-27T01:15:24.812Z,96831.78
2023-02-27T01:17:51.596Z,96826.63
2023-02-27T01:20:20.769Z,96829.09
2023-02-27T01:22:47.461Z,96812.63
2023-02-27T01:25:14.131Z,96821.31
2023-02-27T01:27:41.302Z,96820.53
2023-02-27T01:30:11.335Z,96806.63
2023-02-27T01:32:38.348Z,96812.69
2023-02-27T01:35:05.461Z,96817.94
2023-02-27T01:37:34.523Z,96810.25
2023-02-27T01:40:01.145Z,96805.09
2023-02-27T01:42:33.780Z,96822.38
2023-02-27T01:45:12.956Z,96820.53
2023-02-27T01:47:48.003Z,96803.97
2023-02-27T01:50:16.043Z,96811.72
2023-02-27T01:52:49.373Z,96814.31
2023-02-27T01:55:16.457Z,96815.09
2023-02-27T01:57:46.470Z,96806.38
2023-02-27T02:00:14.495Z,96808.91
2023-02-27T02:02:56.580Z,96809.88
2023-02-27T02:05:24.053Z,96822.00
2023-02-27T02:07:54.302Z,96818.53
2023-02-27T02:10:22.434Z,96830.66
2023-02-27T02:12:49.970Z,96832.50
2023-02-27T02:15:17.246Z,96833.34
2023-02-27T02:17:53.333Z,96831.56
2023-02-27T02:20:39.661Z,96833.47
2023-02-27T02:23:31.819Z,96827.47
2023-02-27T02:26:52.407Z,96831.88
2023-02-27T02:29:59.743Z,96833.53
2023-02-27T02:33:07.618Z,96835.25
2023-02-27T02:36:01.266Z,96834.44
2023-02-27T02:39:09.283Z,96834.41
2023-02-27T02:41:58.940Z,96856.22
2023-02-27T02:45:02.195Z,96854.41
2023-02-27T02:47:47.545Z,96859.59
2023-02-27T02:50:36.571Z,96866.56
2023-02-27T02:53:58.324Z,96875.19
2023-02-27T02:56:55.579Z,96868.31
2023-02-27T02:59:33.712Z,96865.72
2023-02-27T03:02:08.511Z,96864.94
2023-02-27T03:04:44.178Z,96867.56
2023-02-27T03:07:23.998Z,96877.06
2023-02-27T03:10:00.110Z,96857.13
2023-02-27T03:12:32.790Z,96872.00
2023-02-27T03:15:20.133Z,96879.84
2023-02-27T03:17:53.388Z,96888.44
2023-02-27T03:20:33.638Z,96886.69
2023-02-27T03:23:07.162Z,96902.41
2023-02-27T03:25:41.509Z,96905.78
2023-02-27T03:28:11.355Z,96917.91
2023-02-27T03:30:50.590Z,96924.09
2023-02-27T03:33:35.982Z,96930.97
2023-02-27T03:36:14.954Z,96930.16
2023-02-27T03:39:24.190Z,96932.75
2023-02-27T03:42:16.707Z,96938.00
2023-02-27T03:45:06.101Z,96934.56
2023-02-27T03:47:36.058Z,96945.88
2023-02-27T03:50:02.776Z,96953.59
2023-02-27T03:52:30.214Z,96953.66
2023-02-27T03:55:02.021Z,96953.66
2023-02-27T03:57:29.311Z,96957.16
2023-02-27T03:59:59.253Z,96959.94
2023-02-27T04:02:28.046Z,96946.06
2023-02-27T04:04:57.803Z,96954.66
2023-02-27T04:07:41.899Z,96948.75
2023-02-27T04:10:14.624Z,96959.97
2023-02-27T04:12:57.929Z,96951.28
2023-02-27T04:15:55.611Z,96959.22
2023-02-27T04:18:36.374Z,96956.75
2023-02-27T04:21:33.712Z,96964.50
2023-02-27T04:24:17.682Z,96968.75
2023-02-27T04:26:51.735Z,96969.66
2023-02-27T04:29:27.990Z,96970.53
2023-02-27T04:32:07.071Z,96974.06
2023-02-27T04:34:44.030Z,96967.94
2023-02-27T04:37:20.220Z,96986.97
2023-02-27T04:39:57.952Z,96993.03
2023-02-27T04:42:33.933Z,96996.47
2023-02-27T04:45:04.833Z,96996.53
2023-02-27T04:47:39.770Z,96999.31
2023-02-27T04:50:17.163Z,96986.31
2023-02-27T04:52:50.269Z,96996.72
2023-02-27T04:55:39.129Z,97005.44
2023-02-27T04:58:12.740Z,97027.00
2023-02-27T05:00:52.473Z,97039.22
2023-02-27T05:03:25.428Z,97046.19
2023-02-27T05:05:56.964Z,97045.28
2023-02-27T05:08:51.354Z,97041.16
2023-02-27T05:11:37.170Z,97040.19
2023-02-27T05:14:31.012Z,97052.34
2023-02-27T05:17:14.901Z,97053.25
2023-02-27T05:19:57.585Z,97064.53
2023-02-27T05:22:43.171Z,97064.47
2023-02-27T05:25:26.646Z,97055.75
2023-02-27T05:28:06.479Z,97071.31
2023-02-27T05:31:19.090Z,97069.66
2023-02-27T05:33:55.722Z,97066.16
2023-02-27T05:36:28.744Z,97082.69
2023-02-27T05:39:09.025Z,97089.53
2023-02-27T05:41:47.949Z,97097.41
2023-02-27T05:44:21.899Z,97104.34
2023-02-27T05:46:59.730Z,97119.94
2023-02-27T05:49:43.719Z,97122.59
2023-02-27T05:52:15.240Z,97129.56
2023-02-27T05:54:51.838Z,97132.28
2023-02-27T05:57:27.183Z,97128.06
2023-02-27T06:00:13.854Z,97141.09
2023-02-27T06:02:42.494Z,97143.59
2023-02-27T06:05:09.520Z,97139.09
2023-02-27T06:07:36.876Z,97137.28
2023-02-27T06:10:06.415Z,97145.94
2023-02-27T06:12:34.911Z,97149.41
2023-02-27T06:15:04.156Z,97158.91
2023-02-27T06:17:36.207Z,97164.06
2023-02-27T06:20:03.452Z,97166.56
2023-02-27T06:22:56.347Z,97162.31
2023-02-27T06:25:37.479Z,97175.13
2023-02-27T06:28:14.774Z,97183.91
2023-02-27T06:30:46.587Z,97172.66
2023-02-27T06:33:13.614Z,97179.53
2023-02-27T06:35:40.262Z,97182.13
2023-02-27T06:38:07.148Z,97186.66
2023-02-27T06:40:39.346Z,97189.22
2023-02-27T06:43:09.400Z,97193.41
2023-02-27T06:45:38.306Z,97202.13
2023-02-27T06:48:08.132Z,97194.31
2023-02-27T06:50:34.901Z,97198.72
2023-02-27T06:53:01.490Z,97205.63
2023-02-27T06:55:30.057Z,97202.16
2023-02-27T06:57:56.817Z,97213.41
2023-02-27T07:00:32.243Z,97217.78
2023-02-27T07:02:59.017Z,97226.41
2023-02-27T07:05:28.645Z,97230.06
2023-02-27T07:07:58.722Z,97229.28
2023-02-27T07:10:28.407Z,97224.00
2023-02-27T07:13:00.797Z,97225.75
2023-02-27T07:15:32.370Z,97235.19
2023-02-27T07:18:01.651Z,97232.66
2023-02-27T07:20:31.447Z,97235.28
2023-02-27T07:22:58.541Z,97249.28
2023-02-27T07:25:25.372Z,97259.72
2023-02-27T07:28:01.948Z,97271.88
2023-02-27T07:30:41.785Z,97277.97
2023-02-27T07:33:14.731Z,97279.81
2023-02-27T07:35:41.560Z,97284.28
2023-02-27T07:38:13.924Z,97294.81
2023-02-27T07:40:42.714Z,97290.50
2023-02-27T07:43:12.680Z,97296.56
2023-02-27T07:45:41.202Z,97300.00
2023-02-27T07:48:07.929Z,97305.19
2023-02-27T07:50:40.660Z,97306.81
2023-02-27T07:53:08.075Z,97318.06
2023-02-27T07:55:35.862Z,97318.03
2023-02-27T07:58:05.328Z,97324.13
2023-02-27T08:00:32.561Z,97324.09
2023-02-27T08:03:00.769Z,97330.03
2023-02-27T08:05:30.660Z,97340.44
2023-02-27T08:08:04.178Z,97340.41
2023-02-27T08:10:31.369Z,97342.09
2023-02-27T08:13:07.395Z,97346.38
2023-02-27T08:15:34.179Z,97356.78
2023-02-27T08:18:03.916Z,97360.19
2023-02-27T08:20:31.801Z,97367.03
2023-02-27T08:22:58.751Z,97363.56
2023-02-27T08:25:25.453Z,97371.34
2023-02-27T08:27:52.454Z,97377.44
2023-02-27T08:30:19.303Z,97373.91
2023-02-27T08:32:46.762Z,97379.97
2023-02-27T08:35:13.830Z,97381.72
2023-02-27T08:37:40.719Z,97393.94
2023-02-27T08:40:09.329Z,97398.13
2023-02-27T08:42:38.600Z,97411.06
2023-02-27T08:45:05.629Z,97408.47
2023-02-27T08:47:37.230Z,97415.50
2023-02-27T08:50:07.657Z,97416.22
2023-02-27T08:52:37.040Z,97426.53
2023-02-27T08:58:13.040Z,97427.19
2023-02-27T09:00:44.812Z,97433.22
2023-02-27T09:03:13.979Z,97433.13
2023-02-27T09:05:43.100Z,97434.91
2023-02-27T09:08:10.344Z,97441.03
2023-02-27T09:10:37.297Z,97445.34
2023-02-27T09:13:10.383Z,97448.78
2023-02-27T09:15:42.968Z,97453.94
2023-02-27T09:18:12.967Z,97463.59
2023-02-27T09:20:42.116Z,97466.25
2023-02-27T09:23:09.279Z,97469.78
2023-02-27T09:25:36.167Z,97469.66
2023-02-27T09:28:03.368Z,97476.69
2023-02-27T09:30:31.946Z,97481.03
2023-02-27T09:33:00.674Z,97490.75
2023-02-27T09:35:27.515Z,97480.28
2023-02-27T09:37:56.678Z,97484.59
2023-02-27T09:40:32.737Z,97499.34
2023-02-27T09:43:11.772Z,97505.34
2023-02-27T09:45:42.553Z,97513.13
2023-02-27T09:48:42.998Z,97509.50
2023-02-27T09:51:10.441Z,97504.28
2023-02-27T09:53:43.092Z,97505.13
2023-02-27T09:56:51.338Z,97508.53
2023-02-27T09:59:46.748Z,97500.69
2023-02-27T10:06:18.788Z,97504.97
2023-02-27T10:09:06.936Z,97507.47
2023-02-27T10:11:43.053Z,97513.59
2023-02-27T10:15:18.447Z,97527.50
2023-02-27T10:17:51.283Z,97533.34
2023-02-27T10:20:26.444Z,97537.56
2023-02-27T10:22:56.786Z,97534.06
2023-02-27T10:25:31.781Z,97538.41
2023-02-27T10:28:11.143Z,97540.78
2023-02-27T10:30:38.062Z,97552.03
2023-02-27T10:33:16.515Z,97559.28
2023-02-27T10:35:46.929Z,97561.91
2023-02-27T10:38:27.119Z,97558.34
2023-02-27T10:40:56.903Z,97561.03
2023-02-27T10:43:23.851Z,97560.91
2023-02-27T10:45:52.724Z,97552.97
2023-02-27T10:48:20.470Z,97563.22
2023-02-27T10:50:52.344Z,97569.25
2023-02-27T10:53:26.573Z,97578.75
2023-02-27T10:56:05.529Z,97579.75
2023-02-27T10:58:38.353Z,97579.84
2023-02-27T11:01:13.190Z,97605.22
2023-02-27T11:03:46.525Z,97601.84
2023-02-27T11:06:26.651Z,97611.47
2023-02-27T11:09:22.393Z,97608.88
2023-02-27T11:11:50.794Z,97612.28
2023-02-27T11:14:34.657Z,97610.31
2023-02-27T11:17:22.649Z,97609.31
2023-02-27T11:19:51.863Z,97623.25
2023-02-27T11:22:25.103Z,97625.69
2023-02-27T11:24:55.870Z,97621.31
2023-02-27T11:27:29.466Z,97628.31
2023-02-27T11:30:00.637Z,97630.69
2023-02-27T11:32:51.457Z,97626.97
2023-02-27T11:35:21.529Z,97630.44
2023-02-27T11:37:52.978Z,97634.66
2023-02-27T11:40:53.974Z,97626.47
2023-02-27T11:43:34.403Z,97639.97
2023-02-27T11:46:44.839Z,97630.47
2023-02-27T11:49:40.086Z,97632.03
2023-02-27T11:52:18.661Z,97638.19
2023-02-27T11:54:59.994Z,97631.97
2023-02-27T11:57:42.514Z,97646.78
2023-02-27T12:01:00.404Z,97640.06
2023-02-27T12:04:12.506Z,97652.22
2023-02-27T12:06:51.974Z,97660.88
2023-02-27T12:09:34.474Z,97657.50
2023-02-27T12:12:06.313Z,97665.22
2023-02-27T12:15:14.170Z,97669.72
2023-02-27T12:17:46.733Z,97676.53
2023-02-27T12:21:06.790Z,97681.03
2023-02-27T12:24:26.704Z,97680.22
2023-02-27T12:27:06.547Z,97687.97
2023-02-27T12:29:41.991Z,97694.94
2023-02-27T12:32:18.743Z,97690.38
2023-02-27T12:34:59.740Z,97697.25
2023-02-27T12:37:33.679Z,97699.13
2023-02-27T12:40:20.038Z,97697.53
2023-02-27T12:43:04.311Z,97702.91
2023-02-27T12:45:42.922Z,97714.00
2023-02-27T12:48:23.395Z,97714.25
2023-02-27T12:51:12.628Z,97721.19
2023-02-27T13:00:20.631Z,97729.44
2023-02-27T13:03:13.006Z,97733.97
2023-02-27T13:05:54.634Z,97731.13
2023-02-27T13:08:57.969Z,97739.59
2023-02-27T13:12:04.114Z,97745.75
2023-02-27T13:14:46.732Z,97755.63
2023-02-27T13:17:27.081Z,97758.34
2023-02-27T13:20:33.263Z,97749.72
2023-02-27T13:23:23.880Z,97754.22
2023-02-27T13:25:55.561Z,97755.97
2023-02-27T13:28:28.166Z,97762.00
2023-02-27T13:31:27.421Z,97763.88
2023-02-27T13:34:10.922Z,97757.69
2023-02-27T13:36:45.225Z,97769.63
2023-02-27T13:39:49.314Z,97772.28
2023-02-27T13:42:28.239Z,97773.09
2023-02-27T13:44:57.006Z,97769.56
2023-02-27T13:47:29.729Z,97777.47
2023-02-27T13:50:01.970Z,97780.16
2023-02-27T13:52:40.734Z,97772.41
2023-02-27T13:55:36.973Z,97774.22
2023-02-27T13:58:07.831Z,97778.59
2023-02-27T14:00:38.522Z,97777.75
2023-02-27T14:03:25.963Z,97776.94
2023-02-27T14:05:56.219Z,97780.38
2023-02-27T14:08:28.060Z,97780.69
2023-02-27T14:11:30.441Z,97788.41
2023-02-27T14:14:01.845Z,97793.69
2023-02-27T14:16:37.799Z,97801.69
2023-02-27T14:19:17.260Z,97812.34
2023-02-27T14:21:52.588Z,97822.91
2023-02-27T14:24:22.998Z,97821.13
2023-02-27T14:26:58.705Z,97827.31
2023-02-27T14:29:31.521Z,97823.97
2023-02-27T14:32:17.332Z,97834.44
2023-02-27T14:34:44.141Z,97829.16
2023-02-27T14:37:19.854Z,97837.84
2023-02-27T14:39:51.840Z,97839.44
2023-02-27T14:42:37.843Z,97845.75
2023-02-27T14:45:12.446Z,97848.31
2023-02-27T14:47:40.798Z,97846.69
2023-02-27T14:50:31.291Z,97851.88
2023-02-27T14:53:04.350Z,97851.94
2023-02-27T14:55:36.066Z,97860.66
2023-02-27T14:58:24.058Z,97865.03
2023-02-27T15:01:05.285Z,97862.41
2023-02-27T15:03:46.340Z,97867.72
2023-02-27T15:06:20.990Z,97875.56
2023-02-27T15:08:54.009Z,97870.38
2023-02-27T15:11:25.009Z,97874.78
2023-02-27T15:13:58.563Z,97882.66
2023-02-27T15:16:25.245Z,97887.00
2023-02-27T15:19:03.203Z,97883.59
2023-02-27T15:21:37.045Z,97899.28
2023-02-27T15:24:09.167Z,97902.78
2023-02-27T15:26:39.596Z,97905.47
2023-02-27T15:29:08.581Z,97916.03
2023-02-27T15:31:39.089Z,97923.09
2023-02-27T15:34:13.298Z,97927.41
2023-02-27T15:36:46.879Z,97929.91
2023-02-27T15:39:25.482Z,97936.97
2023-02-27T15:41:59.357Z,97934.38
2023-02-27T15:44:58.870Z,97940.50
2023-02-27T15:47:33.290Z,97942.28
2023-02-27T15:50:08.971Z,97947.47
2023-02-27T15:53:04.271Z,97947.50
2023-02-27T15:55:34.370Z,97948.38
2023-02-27T15:58:19.356Z,97944.03
2023-02-27T16:00:51.920Z,97947.47
2023-02-27T16:03:22.980Z,97952.69
2023-02-27T16:05:53.239Z,97952.78
2023-02-27T16:08:21.285Z,97946.66
2023-02-27T16:10:48.495Z,97958.09
2023-02-27T16:13:27.748Z,97966.75
2023-02-27T16:16:50.649Z,97971.06
2023-02-27T16:19:30.707Z,97971.97
2023-02-27T16:22:15.551Z,97975.47
2023-02-27T16:24:49.822Z,97980.72
2023-02-27T16:27:37.737Z,97992.09
2023-02-27T16:30:11.117Z,97992.88
2023-02-27T16:32:44.189Z,97999.00
2023-02-27T16:35:24.606Z,98008.56
2023-02-27T16:37:52.979Z,98007.72
2023-02-27T16:40:25.201Z,98013.78
2023-02-27T16:42:56.047Z,98020.81
2023-02-27T16:45:25.429Z,98025.97
2023-02-27T16:47:55.177Z,98021.63
2023-02-27T16:50:35.057Z,98032.09
2023-02-27T16:53:01.694Z,98033.84
2023-02-27T16:55:28.405Z,98042.56
2023-02-27T16:57:55.076Z,98040.81
2023-02-27T17:00:22.819Z,98039.91
2023-02-27T17:02:49.806Z,98048.63
2023-02-27T17:05:19.633Z,98037.31
2023-02-27T17:07:53.885Z,98039.88
2023-02-27T17:10:25.595Z,98031.28
2023-02-27T17:12:52.985Z,98042.59
2023-02-27T17:15:21.416Z,98045.19
2023-02-27T17:17:54.220Z,98051.25
2023-02-27T17:20:43.752Z,98054.69
2023-02-27T17:23:14.534Z,98071.19
2023-02-27T17:25:56.336Z,98069.41
2023-02-27T17:28:24.148Z,98070.41
2023-02-27T17:30:51.028Z,98065.97
2023-02-27T17:33:19.395Z,98067.66
2023-02-27T17:35:46.168Z,98077.28
2023-02-27T17:38:14.910Z,98074.66
2023-02-27T17:40:43.559Z,98080.78
2023-02-27T17:43:10.833Z,98083.41
2023-02-27T17:45:38.574Z,98070.38
2023-02-27T17:48:06.523Z,98080.81
2023-02-27T17:50:35.884Z,98081.66
2023-02-27T17:53:02.710Z,98083.44
2023-02-27T17:55:47.611Z,98086.03
2023-02-27T17:58:31.069Z,98093.88
2023-02-27T18:01:21.794Z,98094.75
2023-02-27T18:03:51.025Z,98090.38
2023-02-27T18:06:23.478Z,98100.88
2023-02-27T18:08:51.523Z,98094.81
2023-02-27T18:11:20.343Z,98090.41
2023-02-27T18:13:47.988Z,98101.78
2023-02-27T18:16:16.297Z,98101.78
2023-02-27T18:18:43.606Z,98096.63
2023-02-27T18:21:22.899Z,98101.88
2023-02-27T18:23:51.687Z,98110.56
2023-02-27T18:26:30.580Z,98114.91
2023-02-27T18:29:04.016Z,98114.91
2023-02-27T18:31:38.311Z,98113.19
2023-02-27T18:34:05.958Z,98113.22
2023-02-27T18:36:37.043Z,98110.59
2023-02-27T18:39:05.122Z,98109.72
2023-02-27T18:41:37.994Z,98121.91
2023-02-27T18:44:23.650Z,98122.03
2023-02-27T18:46:53.420Z,98112.44
2023-02-27T18:49:20.134Z,98108.97
2023-02-27T18:51:49.910Z,98115.06
2023-02-27T18:54:23.957Z,98134.16
2023-02-27T18:57:13.022Z,98121.19
2023-02-27T18:59:48.501Z,98123.75
2023-02-27T19:05:02.830Z,98137.75
2023-02-27T19:07:32.701Z,98142.03
2023-02-27T19:10:01.935Z,98146.41
2023-02-27T19:12:31.008Z,98147.34
2023-02-27T19:15:00.580Z,98148.19
2023-02-27T19:17:37.325Z,98151.63
2023-02-27T19:20:08.735Z,98152.47
2023-02-27T19:22:38.485Z,98153.41
2023-02-27T19:25:05.599Z,98154.34
2023-02-27T19:27:33.009Z,98153.47
2023-02-27T19:30:12.593Z,98159.53
2023-02-27T19:32:44.422Z,98160.38
2023-02-27T19:35:17.528Z,98168.97
2023-02-27T19:37:59.466Z,98162.94
2023-02-27T19:40:32.108Z,98165.56
2023-02-27T19:43:06.640Z,98167.28
2023-02-27T19:45:43.547Z,98170.84
2023-02-27T19:48:24.481Z,98175.22
2023-02-27T19:50:52.330Z,98172.59
2023-02-27T19:53:19.464Z,98175.19
2023-02-27T19:55:55.989Z,98182.19
2023-02-27T19:58:40.155Z,98175.22
2023-02-27T20:01:13.764Z,98176.97
2023-02-27T20:03:43.490Z,98176.97
2023-02-27T20:06:23.864Z,98179.59
2023-02-27T20:08:55.678Z,98177.84
2023-02-27T20:11:22.384Z,98177.88
2023-02-27T20:13:54.069Z,98176.13
2023-02-27T20:16:31.098Z,98177.94
2023-02-27T20:19:01.186Z,98184.03
2023-02-27T20:21:30.846Z,98187.50
2023-02-27T20:23:58.362Z,98183.06
2023-02-27T20:26:32.290Z,98195.28
2023-02-27T20:29:05.702Z,98184.88
2023-02-27T20:31:36.104Z,98193.53
2023-02-27T20:34:08.631Z,98191.81
2023-02-27T20:36:39.481Z,98192.66
2023-02-27T20:39:12.078Z,98189.25
2023-02-27T20:41:42.818Z,98188.38
2023-02-27T20:44:10.989Z,98184.88
2023-02-27T20:46:48.908Z,98192.72
2023-02-27T20:49:19.108Z,98192.69
2023-02-27T20:51:46.051Z,98197.91
2023-02-27T20:54:23.011Z,98199.69
2023-02-27T20:56:54.476Z,98196.22
2023-02-27T20:59:27.573Z,98194.47
2023-02-27T21:01:57.412Z,98197.06
2023-02-27T21:04:42.614Z,98197.09
2023-02-27T21:07:15.358Z,98201.44
2023-02-27T21:09:42.948Z,98201.44
2023-02-27T21:12:10.047Z,98202.34
2023-02-27T21:14:49.918Z,98204.09
2023-02-27T21:17:16.586Z,98204.09
2023-02-27T21:19:46.197Z,98204.91
2023-02-27T21:22:17.322Z,98213.56
2023-02-27T21:24:43.995Z,98219.69
2023-02-27T21:27:13.524Z,98211.91
2023-02-27T21:29:40.256Z,98215.38
2023-02-27T21:32:09.239Z,98207.56
2023-02-27T21:35:38.214Z,98208.44
2023-02-27T21:38:05.450Z,98211.88
2023-02-27T21:40:33.673Z,98215.38
2023-02-27T21:43:01.432Z,98224.03
2023-02-27T21:45:28.173Z,98229.25
2023-02-27T21:48:03.569Z,98232.69
2023-02-27T21:50:39.399Z,98241.41
2023-02-27T21:53:10.492Z,98243.13
2023-02-27T21:55:39.408Z,98240.53
2023-02-27T21:58:10.298Z,98242.28
2023-02-27T22:00:39.962Z,98245.75
2023-02-27T22:03:09.126Z,98245.75
2023-02-27T22:05:43.218Z,98237.94
2023-02-27T22:08:10.437Z,98241.44
2023-02-27T22:10:50.150Z,98240.59
2023-02-27T22:13:16.789Z,98238.81
2023-02-27T22:15:43.432Z,98233.63
2023-02-27T22:18:10.063Z,98235.34
2023-02-27T22:20:41.163Z,98232.75
2023-02-27T22:23:08.472Z,98231.00
2023-02-27T22:25:40.563Z,98228.41
2023-02-27T22:28:07.535Z,98224.09
2023-02-27T22:30:37.291Z,98225.81
2023-02-27T22:33:04.044Z,98224.09
2023-02-27T22:35:35.643Z,98231.91
2023-02-27T22:38:10.983Z,98236.25
2023-02-27T22:40:42.723Z,98236.28
2023-02-27T22:43:11.279Z,98231.03
2023-02-27T22:45:47.896Z,98234.53
2023-02-27T22:48:14.595Z,98236.28
2023-02-27T22:50:43.608Z,98246.66
2023-02-27T22:53:10.314Z,98245.75
2023-02-27T22:55:36.935Z,98251.84
2023-02-27T22:58:03.560Z,98251.00
2023-02-27T23:00:34.708Z,98255.31
2023-02-27T23:03:01.289Z,98261.41
2023-02-27T23:05:30.078Z,98264.91
2023-02-27T23:07:59.157Z,98271.81
2023-02-27T23:10:29.780Z,98270.97
2023-02-27T23:12:56.454Z,98270.97
2023-02-27T23:15:23.088Z,98273.59
2023-02-27T23:17:58.462Z,98271.84
2023-02-27T23:20:27.652Z,98272.72
2023-02-27T23:22:56.150Z,98269.22
2023-02-27T23:25:23.884Z,98272.72
2023-02-27T23:27:53.405Z,98275.34
2023-02-27T23:30:22.855Z,98269.25
2023-02-27T23:32:51.020Z,98275.31
2023-02-27T23:35:22.947Z,98280.53
2023-02-27T23:37:55.765Z,98277.94
2023-02-27T23:40:26.861Z,98276.22
2023-02-27T23:43:13.114Z,98273.63
2023-02-27T23:45:42.049Z,98275.34
2023-02-27T23:48:09.325Z,98279.69
2023-02-27T23:50:42.037Z,98277.06
2023-02-27T23:53:10.374Z,98284.88
2023-02-27T23:55:37.823Z,98284.88
2023-02-27T23:58:09.793Z,98290.97
